sensor_id;sensor_type;location;lat;lon;timestamp;pressure;altitude;pressure_sealevel;temperature;humidity
11049;BME280;5577;42.706;23.160;2022-10-16T00:01:41;94802.28;;;6.93;100.00
11049;BME280;5577;42.706;23.160;2022-10-16T00:04:25;94804.91;;;6.85;100.00
11049;BME280;5577;42.706;23.160;2022-10-16T00:07:09;94800.38;;;6.77;100.00
11049;BME280;5577;42.706;23.160;2022-10-16T00:09:53;94823.44;;;6.80;100.00
11049;BME280;5577;42.706;23.160;2022-10-16T00:12:37;94818.03;;;6.76;100.00
11049;BME280;5577;42.706;23.160;2022-10-16T00:15:21;94796.63;;;6.69;100.00
11049;BME280;5577;42.706;23.160;2022-10-16T00:18:05;94820.78;;;6.63;100.00
11049;BME280;5577;42.706;23.160;2022-10-16T00:20:50;94821.69;;;6.58;100.00
11049;BME280;5577;42.706;23.160;2022-10-16T00:23:34;94820.28;;;6.61;100.00
11049;BME280;5577;42.706;23.160;2022-10-16T00:26:19;94820.13;;;6.66;100.00
11049;BME280;5577;42.706;23.160;2022-10-16T00:29:04;94824.59;;;6.57;100.00
11049;BME280;5577;42.706;23.160;2022-10-16T00:31:48;94831.84;;;6.51;100.00
11049;BME280;5577;42.706;23.160;2022-10-16T00:34:32;94824.72;;;6.52;100.00
11049;BME280;5577;42.706;23.160;2022-10-16T00:37:16;94801.91;;;6.30;100.00
11049;BME280;5577;42.706;23.160;2022-10-16T00:40:00;94816.53;;;6.53;100.00
11049;BME280;5577;42.706;23.160;2022-10-16T00:42:44;94814.09;;;6.57;100.00
11049;BME280;5577;42.706;23.160;2022-10-16T00:45:28;94819.66;;;6.55;100.00
11049;BME280;5577;42.706;23.160;2022-10-16T00:48:13;94804.13;;;6.45;100.00
11049;BME280;5577;42.706;23.160;2022-10-16T00:50:58;94817.81;;;6.56;100.00
11049;BME280;5577;42.706;23.160;2022-10-16T00:53:43;94824.56;;;6.48;100.00
11049;BME280;5577;42.706;23.160;2022-10-16T00:56:27;94815.16;;;6.56;100.00
11049;BME280;5577;42.706;23.160;2022-10-16T00:59:18;94823.78;;;6.48;100.00
11049;BME280;5577;42.706;23.160;2022-10-16T01:02:04;94819.31;;;6.48;100.00
11049;BME280;5577;42.706;23.160;2022-10-16T01:04:51;94820.72;;;6.54;100.00
11049;BME280;5577;42.706;23.160;2022-10-16T01:07:41;94828.78;;;6.58;100.00
11049;BME280;5577;42.706;23.160;2022-10-16T01:10:50;94825.06;;;6.59;100.00
11049;BME280;5577;42.706;23.160;2022-10-16T01:13:41;94831.41;;;6.58;100.00
11049;BME280;5577;42.706;23.160;2022-10-16T01:16:36;94840.94;;;6.45;100.00
11049;BME280;5577;42.706;23.160;2022-10-16T01:19:44;94830.63;;;6.49;100.00
11049;BME280;5577;42.706;23.160;2022-10-16T01:23:07;94823.63;;;6.44;100.00
11049;BME280;5577;42.706;23.160;2022-10-16T01:31:48;94801.91;;;6.30;100.00
11049;BME280;5577;42.706;23.160;2022-10-16T01:34:44;94814.25;;;6.30;100.00
11049;BME280;5577;42.706;23.160;2022-10-16T01:40:24;94813.31;;;6.26;100.00
11049;BME280;5577;42.706;23.160;2022-10-16T01:43:12;94822.63;;;6.32;100.00
11049;BME280;5577;42.706;23.160;2022-10-16T01:45:59;94808.31;;;6.16;100.00
11049;BME280;5577;42.706;23.160;2022-10-16T01:48:44;94784.75;;;6.02;100.00
11049;BME280;5577;42.706;23.160;2022-10-16T01:51:29;94829.22;;;6.21;100.00
11049;BME280;5577;42.706;23.160;2022-10-16T01:54:14;94835.09;;;6.18;100.00
11049;BME280;5577;42.706;23.160;2022-10-16T01:57:01;94828.03;;;6.05;100.00
11049;BME280;5577;42.706;23.160;2022-10-16T01:59:50;94836.47;;;6.15;100.00
11049;BME280;5577;42.706;23.160;2022-10-16T02:02:38;94824.41;;;5.92;100.00
11049;BME280;5577;42.706;23.160;2022-10-16T02:05:28;94846.13;;;6.06;100.00
11049;BME280;5577;42.706;23.160;2022-10-16T02:08:14;94839.81;;;6.07;100.00
11049;BME280;5577;42.706;23.160;2022-10-16T02:11:00;94839.94;;;6.02;100.00
11049;BME280;5577;42.706;23.160;2022-10-16T02:14:06;94842.22;;;5.95;100.00
11049;BME280;5577;42.706;23.160;2022-10-16T02:16:50;94856.59;;;5.97;100.00
11049;BME280;5577;42.706;23.160;2022-10-16T02:19:34;94850.25;;;5.98;100.00
11049;BME280;5577;42.706;23.160;2022-10-16T02:22:25;94860.31;;;5.97;100.00
11049;BME280;5577;42.706;23.160;2022-10-16T02:25:19;94830.09;;;5.85;100.00
11049;BME280;5577;42.706;23.160;2022-10-16T02:28:42;94858.69;;;5.87;100.00
11049;BME280;5577;42.706;23.160;2022-10-16T02:31:28;94853.91;;;5.89;100.00
11049;BME280;5577;42.706;23.160;2022-10-16T02:34:16;94856.81;;;5.87;100.00
11049;BME280;5577;42.706;23.160;2022-10-16T02:37:04;94847.44;;;5.73;100.00
11049;BME280;5577;42.706;23.160;2022-10-16T02:39:48;94859.06;;;5.80;100.00
11049;BME280;5577;42.706;23.160;2022-10-16T02:42:35;94853.75;;;5.85;100.00
11049;BME280;5577;42.706;23.160;2022-10-16T02:45:20;94867.47;;;5.82;100.00
11049;BME280;5577;42.706;23.160;2022-10-16T02:48:04;94872.44;;;5.84;100.00
11049;BME280;5577;42.706;23.160;2022-10-16T02:50:48;94859.28;;;5.84;100.00
11049;BME280;5577;42.706;23.160;2022-10-16T02:53:32;94877.22;;;5.68;100.00
11049;BME280;5577;42.706;23.160;2022-10-16T02:56:16;94871.25;;;5.76;100.00
11049;BME280;5577;42.706;23.160;2022-10-16T02:59:00;94867.81;;;5.76;100.00
11049;BME280;5577;42.706;23.160;2022-10-16T03:01:44;94871.47;;;5.66;100.00
11049;BME280;5577;42.706;23.160;2022-10-16T03:04:28;94878.97;;;5.73;100.00
11049;BME280;5577;42.706;23.160;2022-10-16T03:07:12;94872.31;;;5.75;100.00
11049;BME280;5577;42.706;23.160;2022-10-16T03:09:56;94876.13;;;5.69;100.00
11049;BME280;5577;42.706;23.160;2022-10-16T03:12:41;94869.63;;;5.67;100.00
11049;BME280;5577;42.706;23.160;2022-10-16T03:15:25;94868.66;;;5.63;100.00
11049;BME280;5577;42.706;23.160;2022-10-16T03:18:09;94849.25;;;5.50;100.00
11049;BME280;5577;42.706;23.160;2022-10-16T03:20:53;94871.38;;;5.58;100.00
11049;BME280;5577;42.706;23.160;2022-10-16T03:23:38;94876.19;;;5.56;100.00
11049;BME280;5577;42.706;23.160;2022-10-16T03:26:22;94884.22;;;5.59;100.00
11049;BME280;5577;42.706;23.160;2022-10-16T03:29:06;94846.56;;;5.28;100.00
11049;BME280;5577;42.706;23.160;2022-10-16T03:31:50;94893.47;;;5.57;100.00
11049;BME280;5577;42.706;23.160;2022-10-16T03:34:34;94890.28;;;5.60;100.00
11049;BME280;5577;42.706;23.160;2022-10-16T03:37:18;94898.94;;;5.60;100.00
11049;BME280;5577;42.706;23.160;2022-10-16T03:40:03;94888.72;;;5.59;100.00
11049;BME280;5577;42.706;23.160;2022-10-16T03:42:47;94877.94;;;5.60;100.00
11049;BME280;5577;42.706;23.160;2022-10-16T03:45:31;94885.00;;;5.60;100.00
11049;BME280;5577;42.706;23.160;2022-10-16T03:48:15;94885.31;;;5.58;100.00
11049;BME280;5577;42.706;23.160;2022-10-16T03:50:59;94887.44;;;5.56;100.00
11049;BME280;5577;42.706;23.160;2022-10-16T03:53:43;94886.47;;;5.52;100.00
11049;BME280;5577;42.706;23.160;2022-10-16T03:56:27;94873.19;;;5.49;100.00
11049;BME280;5577;42.706;23.160;2022-10-16T03:59:11;94888.16;;;5.48;100.00
11049;BME280;5577;42.706;23.160;2022-10-16T04:01:55;94884.66;;;5.53;100.00
11049;BME280;5577;42.706;23.160;2022-10-16T04:04:39;94887.84;;;5.50;100.00
11049;BME280;5577;42.706;23.160;2022-10-16T04:07:23;94883.69;;;5.49;100.00
11049;BME280;5577;42.706;23.160;2022-10-16T04:10:07;94883.19;;;5.47;100.00
11049;BME280;5577;42.706;23.160;2022-10-16T04:12:51;94882.94;;;5.35;100.00
11049;BME280;5577;42.706;23.160;2022-10-16T04:15:35;94890.81;;;5.35;100.00
11049;BME280;5577;42.706;23.160;2022-10-16T04:18:19;94878.72;;;5.34;100.00
11049;BME280;5577;42.706;23.160;2022-10-16T04:21:05;94888.19;;;5.35;100.00
11049;BME280;5577;42.706;23.160;2022-10-16T04:23:49;94894.09;;;5.27;100.00
11049;BME280;5577;42.706;23.160;2022-10-16T04:26:33;94894.09;;;5.27;100.00
11049;BME280;5577;42.706;23.160;2022-10-16T04:29:17;94889.19;;;5.25;100.00
11049;BME280;5577;42.706;23.160;2022-10-16T04:32:01;94889.84;;;5.31;100.00
11049;BME280;5577;42.706;23.160;2022-10-16T04:34:45;94894.59;;;5.29;100.00
11049;BME280;5577;42.706;23.160;2022-10-16T04:37:29;94893.63;;;5.25;100.00
11049;BME280;5577;42.706;23.160;2022-10-16T04:40:13;94895.59;;;5.19;100.00
11049;BME280;5577;42.706;23.160;2022-10-16T04:42:58;94902.78;;;5.14;100.00
11049;BME280;5577;42.706;23.160;2022-10-16T04:45:42;94884.22;;;4.97;100.00
11049;BME280;5577;42.706;23.160;2022-10-16T04:48:25;94906.09;;;5.19;100.00
11049;BME280;5577;42.706;23.160;2022-10-16T04:51:09;94906.47;;;5.26;100.00
11049;BME280;5577;42.706;23.160;2022-10-16T04:53:54;94916.47;;;5.24;100.00
11049;BME280;5577;42.706;23.160;2022-10-16T04:56:38;94909.69;;;5.23;100.00
11049;BME280;5577;42.706;23.160;2022-10-16T04:59:31;94921.72;;;5.24;100.00
11049;BME280;5577;42.706;23.160;2022-10-16T05:02:15;94918.34;;;5.24;100.00
11049;BME280;5577;42.706;23.160;2022-10-16T05:04:59;94927.25;;;5.23;100.00
11049;BME280;5577;42.706;23.160;2022-10-16T05:07:43;94922.03;;;5.36;100.00
11049;BME280;5577;42.706;23.160;2022-10-16T05:10:27;94926.00;;;5.47;100.00
11049;BME280;5577;42.706;23.160;2022-10-16T05:13:11;94910.81;;;5.44;100.00
11049;BME280;5577;42.706;23.160;2022-10-16T05:15:56;94915.00;;;5.45;100.00
11049;BME280;5577;42.706;23.160;2022-10-16T05:18:40;94927.41;;;5.67;100.00
11049;BME280;5577;42.706;23.160;2022-10-16T05:21:24;94932.28;;;5.87;100.00
11049;BME280;5577;42.706;23.160;2022-10-16T05:24:08;94921.69;;;6.01;100.00
11049;BME280;5577;42.706;23.160;2022-10-16T05:26:53;94928.47;;;6.15;100.00
11049;BME280;5577;42.706;23.160;2022-10-16T05:29:37;94933.91;;;6.19;100.00
11049;BME280;5577;42.706;23.160;2022-10-16T05:32:21;94943.41;;;6.28;100.00
11049;BME280;5577;42.706;23.160;2022-10-16T05:35:05;94948.91;;;6.40;100.00
11049;BME280;5577;42.706;23.160;2022-10-16T05:37:50;94956.97;;;6.44;100.00
11049;BME280;5577;42.706;23.160;2022-10-16T05:40:34;94958.22;;;6.46;100.00
11049;BME280;5577;42.706;23.160;2022-10-16T05:43:19;94948.84;;;6.54;100.00
11049;BME280;5577;42.706;23.160;2022-10-16T05:46:05;94953.25;;;6.67;100.00
11049;BME280;5577;42.706;23.160;2022-10-16T05:48:51;94954.06;;;6.76;100.00
11049;BME280;5577;42.706;23.160;2022-10-16T05:51:35;94955.34;;;6.87;100.00
11049;BME280;5577;42.706;23.160;2022-10-16T05:54:19;94963.19;;;7.00;100.00
11049;BME280;5577;42.706;23.160;2022-10-16T05:57:03;94933.75;;;6.98;100.00
11049;BME280;5577;42.706;23.160;2022-10-16T05:59:49;94973.69;;;7.31;100.00
11049;BME280;5577;42.706;23.160;2022-10-16T06:02:33;94969.72;;;7.50;100.00
11049;BME280;5577;42.706;23.160;2022-10-16T06:05:17;94887.03;;;7.12;100.00
11049;BME280;5577;42.706;23.160;2022-10-16T06:08:01;94969.63;;;7.72;100.00
11049;BME280;5577;42.706;23.160;2022-10-16T06:10:46;94971.22;;;7.82;100.00
11049;BME280;5577;42.706;23.160;2022-10-16T06:13:30;94975.75;;;8.07;100.00
11049;BME280;5577;42.706;23.160;2022-10-16T06:16:14;94983.66;;;8.15;100.00
11049;BME280;5577;42.706;23.160;2022-10-16T06:18:58;94992.84;;;8.26;100.00
11049;BME280;5577;42.706;23.160;2022-10-16T06:21:43;94997.97;;;8.40;100.00
11049;BME280;5577;42.706;23.160;2022-10-16T06:24:27;94984.94;;;8.52;100.00
11049;BME280;5577;42.706;23.160;2022-10-16T06:27:11;94997.78;;;8.62;100.00
11049;BME280;5577;42.706;23.160;2022-10-16T06:29:55;94996.53;;;8.76;100.00
11049;BME280;5577;42.706;23.160;2022-10-16T06:32:39;95008.03;;;8.89;100.00
11049;BME280;5577;42.706;23.160;2022-10-16T06:35:23;94994.19;;;9.01;100.00
11049;BME280;5577;42.706;23.160;2022-10-16T06:38:07;95003.66;;;9.02;100.00
11049;BME280;5577;42.706;23.160;2022-10-16T06:40:53;95000.84;;;9.07;100.00
11049;BME280;5577;42.706;23.160;2022-10-16T06:43:37;94998.13;;;9.24;100.00
11049;BME280;5577;42.706;23.160;2022-10-16T06:46:23;95006.97;;;9.36;100.00
11049;BME280;5577;42.706;23.160;2022-10-16T06:49:08;95010.34;;;9.45;100.00
11049;BME280;5577;42.706;23.160;2022-10-16T06:51:51;95006.91;;;9.53;100.00
11049;BME280;5577;42.706;23.160;2022-10-16T06:54:35;95012.47;;;9.60;100.00
11049;BME280;5577;42.706;23.160;2022-10-16T06:57:19;95012.66;;;9.55;100.00
11049;BME280;5577;42.706;23.160;2022-10-16T07:00:03;95015.75;;;9.57;100.00
11049;BME280;5577;42.706;23.160;2022-10-16T07:02:47;95014.78;;;9.62;100.00
11049;BME280;5577;42.706;23.160;2022-10-16T07:05:31;95018.47;;;9.78;100.00
11049;BME280;5577;42.706;23.160;2022-10-16T07:08:15;95025.00;;;10.01;100.00
11049;BME280;5577;42.706;23.160;2022-10-16T07:11:00;95031.19;;;10.13;100.00
11049;BME280;5577;42.706;23.160;2022-10-16T07:13:45;95019.66;;;10.18;100.00
11049;BME280;5577;42.706;23.160;2022-10-16T07:16:32;95033.31;;;10.28;100.00
11049;BME280;5577;42.706;23.160;2022-10-16T07:19:16;95029.75;;;10.45;100.00
11049;BME280;5577;42.706;23.160;2022-10-16T07:22:01;95037.63;;;10.53;100.00
11049;BME280;5577;42.706;23.160;2022-10-16T07:24:46;95032.31;;;10.74;100.00
11049;BME280;5577;42.706;23.160;2022-10-16T07:27:30;95031.28;;;10.87;100.00
11049;BME280;5577;42.706;23.160;2022-10-16T07:30:14;95027.94;;;11.10;100.00
11049;BME280;5577;42.706;23.160;2022-10-16T07:32:58;95020.94;;;11.26;100.00
11049;BME280;5577;42.706;23.160;2022-10-16T07:35:53;95028.13;;;11.38;100.00
11049;BME280;5577;42.706;23.160;2022-10-16T07:38:37;94993.41;;;11.19;100.00
11049;BME280;5577;42.706;23.160;2022-10-16T07:41:22;95038.53;;;11.55;100.00
11049;BME280;5577;42.706;23.160;2022-10-16T07:44:06;95041.38;;;11.83;100.00
11049;BME280;5577;42.706;23.160;2022-10-16T07:46:50;95037.50;;;12.04;100.00
11049;BME280;5577;42.706;23.160;2022-10-16T07:49:34;95035.50;;;12.25;100.00
11049;BME280;5577;42.706;23.160;2022-10-16T07:52:18;95037.28;;;12.33;100.00
11049;BME280;5577;42.706;23.160;2022-10-16T07:55:02;95041.56;;;12.50;100.00
11049;BME280;5577;42.706;23.160;2022-10-16T07:57:46;95042.50;;;12.57;100.00
11049;BME280;5577;42.706;23.160;2022-10-16T08:00:30;95046.44;;;12.87;100.00
11049;BME280;5577;42.706;23.160;2022-10-16T08:03:14;95036.25;;;13.17;100.00
11049;BME280;5577;42.706;23.160;2022-10-16T08:05:59;95039.34;;;13.19;100.00
11049;BME280;5577;42.706;23.160;2022-10-16T08:08:43;95006.22;;;13.16;100.00
11049;BME280;5577;42.706;23.160;2022-10-16T08:11:27;95016.91;;;13.32;100.00
11049;BME280;5577;42.706;23.160;2022-10-16T08:14:11;95035.03;;;13.57;100.00
11049;BME280;5577;42.706;23.160;2022-10-16T08:16:55;95028.00;;;13.80;100.00
11049;BME280;5577;42.706;23.160;2022-10-16T08:19:40;95021.81;;;13.92;100.00
11049;BME280;5577;42.706;23.160;2022-10-16T08:22:23;95028.84;;;14.15;100.00
11049;BME280;5577;42.706;23.160;2022-10-16T08:25:07;95027.59;;;13.78;100.00
11049;BME280;5577;42.706;23.160;2022-10-16T08:27:51;95016.44;;;13.88;100.00
11049;BME280;5577;42.706;23.160;2022-10-16T08:30:36;95025.50;;;14.34;100.00
11049;BME280;5577;42.706;23.160;2022-10-16T08:33:20;95017.22;;;14.74;100.00
11049;BME280;5577;42.706;23.160;2022-10-16T08:36:05;95021.00;;;15.11;100.00
11049;BME280;5577;42.706;23.160;2022-10-16T08:38:50;95029.63;;;15.23;100.00
11049;BME280;5577;42.706;23.160;2022-10-16T08:45:02;95026.63;;;15.66;100.00
11049;BME280;5577;42.706;23.160;2022-10-16T08:48:13;95022.69;;;15.60;100.00
11049;BME280;5577;42.706;23.160;2022-10-16T08:51:01;95027.25;;;15.82;100.00
11049;BME280;5577;42.706;23.160;2022-10-16T08:53:52;95038.69;;;16.28;98.55
11049;BME280;5577;42.706;23.160;2022-10-16T08:56:37;95034.63;;;16.11;91.69
11049;BME280;5577;42.706;23.160;2022-10-16T08:59:21;95039.97;;;16.37;85.62
11049;BME280;5577;42.706;23.160;2022-10-16T09:02:32;95004.88;;;16.13;79.34
11049;BME280;5577;42.706;23.160;2022-10-16T09:05:45;95041.34;;;17.09;78.86
11049;BME280;5577;42.706;23.160;2022-10-16T09:23:21;95030.09;;;17.63;63.27
11049;BME280;5577;42.706;23.160;2022-10-16T09:26:11;95031.94;;;17.56;59.43
11049;BME280;5577;42.706;23.160;2022-10-16T09:28:55;95035.91;;;17.36;59.43
11049;BME280;5577;42.706;23.160;2022-10-16T09:31:40;95021.59;;;17.54;57.81
11049;BME280;5577;42.706;23.160;2022-10-16T09:34:32;95000.25;;;17.25;57.22
11049;BME280;5577;42.706;23.160;2022-10-16T09:37:20;95040.88;;;17.70;56.63
11049;BME280;5577;42.706;23.160;2022-10-16T09:40:05;95035.88;;;17.69;56.46
11049;BME280;5577;42.706;23.160;2022-10-16T09:42:53;95037.31;;;17.59;57.37
11049;BME280;5577;42.706;23.160;2022-10-16T09:45:39;95037.78;;;18.08;54.88
11049;BME280;5577;42.706;23.160;2022-10-16T09:48:44;95035.84;;;18.05;54.47
11049;BME280;5577;42.706;23.160;2022-10-16T09:51:36;95023.78;;;18.32;53.90
11049;BME280;5577;42.706;23.160;2022-10-16T09:54:21;95018.22;;;18.55;53.58
11049;BME280;5577;42.706;23.160;2022-10-16T09:57:07;94999.63;;;18.25;52.83
11049;BME280;5577;42.706;23.160;2022-10-16T09:59:55;95015.91;;;18.53;52.74
11049;BME280;5577;42.706;23.160;2022-10-16T10:02:39;95011.38;;;18.61;50.63
11049;BME280;5577;42.706;23.160;2022-10-16T10:05:26;95014.81;;;18.58;51.26
11049;BME280;5577;42.706;23.160;2022-10-16T10:08:15;95015.75;;;18.90;49.78
11049;BME280;5577;42.706;23.160;2022-10-16T10:11:01;95007.50;;;19.40;48.32
11049;BME280;5577;42.706;23.160;2022-10-16T10:13:45;95006.41;;;19.52;49.58
11049;BME280;5577;42.706;23.160;2022-10-16T10:16:29;95015.78;;;19.00;48.95
11049;BME280;5577;42.706;23.160;2022-10-16T10:19:18;95015.25;;;18.74;47.99
11049;BME280;5577;42.706;23.160;2022-10-16T10:22:16;95002.03;;;19.12;48.01
11049;BME280;5577;42.706;23.160;2022-10-16T10:34:29;94987.22;;;19.60;46.10
11049;BME280;5577;42.706;23.160;2022-10-16T10:37:34;94979.56;;;20.08;45.81
11049;BME280;5577;42.706;23.160;2022-10-16T10:43:29;94972.66;;;20.00;45.48
11049;BME280;5577;42.706;23.160;2022-10-16T10:56:00;94969.19;;;20.38;46.47
11049;BME280;5577;42.706;23.160;2022-10-16T11:02:40;94959.94;;;20.50;45.34
11049;BME280;5577;42.706;23.160;2022-10-16T11:08:03;94963.44;;;20.26;45.24
11049;BME280;5577;42.706;23.160;2022-10-16T11:11:00;94951.91;;;20.04;44.24
11049;BME280;5577;42.706;23.160;2022-10-16T11:14:05;94921.97;;;19.95;44.67
11049;BME280;5577;42.706;23.160;2022-10-16T11:16:57;94957.28;;;19.65;46.79
11049;BME280;5577;42.706;23.160;2022-10-16T11:20:02;94951.78;;;19.06;46.22
11049;BME280;5577;42.706;23.160;2022-10-16T11:23:04;94946.34;;;18.85;47.06
11049;BME280;5577;42.706;23.160;2022-10-16T11:25:50;94950.47;;;18.65;47.79
11049;BME280;5577;42.706;23.160;2022-10-16T11:28:41;94949.22;;;18.45;47.99
11049;BME280;5577;42.706;23.160;2022-10-16T11:31:41;94945.78;;;18.51;49.89
11049;BME280;5577;42.706;23.160;2022-10-16T11:34:44;94944.66;;;18.52;50.91
11049;BME280;5577;42.706;23.160;2022-10-16T11:37:36;94944.53;;;18.35;49.99
11049;BME280;5577;42.706;23.160;2022-10-16T11:40:27;94940.44;;;18.51;51.38
11049;BME280;5577;42.706;23.160;2022-10-16T11:43:32;94943.34;;;18.25;48.56
11049;BME280;5577;42.706;23.160;2022-10-16T11:46:21;94950.59;;;18.21;51.69
11049;BME280;5577;42.706;23.160;2022-10-16T11:49:21;94948.38;;;18.34;47.06
11049;BME280;5577;42.706;23.160;2022-10-16T11:55:17;94946.13;;;19.42;46.97
11049;BME280;5577;42.706;23.160;2022-10-16T12:01:28;94945.78;;;19.97;44.06
11049;BME280;5577;42.706;23.160;2022-10-16T12:07:09;94949.78;;;21.06;41.85
11049;BME280;5577;42.706;23.160;2022-10-16T12:09:55;94942.06;;;21.70;40.22
11049;BME280;5577;42.706;23.160;2022-10-16T12:12:44;94939.56;;;21.42;41.99
11049;BME280;5577;42.706;23.160;2022-10-16T12:15:32;94913.91;;;21.81;39.55
11049;BME280;5577;42.706;23.160;2022-10-16T12:18:22;94938.25;;;23.23;38.24
11049;BME280;5577;42.706;23.160;2022-10-16T12:21:06;94906.53;;;23.27;37.24
11049;BME280;5577;42.706;23.160;2022-10-16T12:23:55;94936.75;;;23.48;37.11
11049;BME280;5577;42.706;23.160;2022-10-16T12:26:52;94950.63;;;23.77;35.57
11049;BME280;5577;42.706;23.160;2022-10-16T12:29:41;94939.03;;;23.76;34.99
11049;BME280;5577;42.706;23.160;2022-10-16T12:32:36;94942.69;;;23.36;36.47
11049;BME280;5577;42.706;23.160;2022-10-16T12:35:26;94942.59;;;22.46;34.44
11049;BME280;5577;42.706;23.160;2022-10-16T12:38:25;94941.13;;;22.38;35.26
11049;BME280;5577;42.706;23.160;2022-10-16T12:41:12;94935.66;;;21.53;37.92
11049;BME280;5577;42.706;23.160;2022-10-16T12:44:01;94940.72;;;20.58;40.21
11049;BME280;5577;42.706;23.160;2022-10-16T12:46:45;94941.94;;;20.22;39.81
11049;BME280;5577;42.706;23.160;2022-10-16T12:49:37;94931.56;;;20.00;39.56
11049;BME280;5577;42.706;23.160;2022-10-16T12:55:19;94912.75;;;20.07;40.65
11049;BME280;5577;42.706;23.160;2022-10-16T13:00:58;94950.00;;;19.73;39.99
11049;BME280;5577;42.706;23.160;2022-10-16T13:04:00;94948.84;;;19.99;41.75
11049;BME280;5577;42.706;23.160;2022-10-16T13:10:27;94944.63;;;20.05;41.55
11049;BME280;5577;42.706;23.160;2022-10-16T13:16:16;94943.84;;;20.04;41.02
11049;BME280;5577;42.706;23.160;2022-10-16T13:25:19;94949.19;;;19.48;43.01
11049;BME280;5577;42.706;23.160;2022-10-16T13:28:07;94908.47;;;19.21;42.96
11049;BME280;5577;42.706;23.160;2022-10-16T13:30:54;94939.66;;;19.64;42.68
11049;BME280;5577;42.706;23.160;2022-10-16T13:33:40;94950.38;;;19.50;40.83
11049;BME280;5577;42.706;23.160;2022-10-16T13:36:33;94944.59;;;19.41;40.04
11049;BME280;5577;42.706;23.160;2022-10-16T13:39:26;94959.56;;;19.56;37.06
11049;BME280;5577;42.706;23.160;2022-10-16T13:42:13;94954.19;;;19.56;37.65
11049;BME280;5577;42.706;23.160;2022-10-16T13:44:58;94960.34;;;19.53;39.15
11049;BME280;5577;42.706;23.160;2022-10-16T13:47:42;94950.34;;;19.47;37.56
11049;BME280;5577;42.706;23.160;2022-10-16T13:50:26;94956.84;;;19.25;37.84
11049;BME280;5577;42.706;23.160;2022-10-16T13:53:14;94956.09;;;19.31;38.40
11049;BME280;5577;42.706;23.160;2022-10-16T13:56:00;94969.16;;;19.40;36.80
11049;BME280;5577;42.706;23.160;2022-10-16T13:58:46;94961.47;;;19.28;36.71
11049;BME280;5577;42.706;23.160;2022-10-16T14:01:31;94962.56;;;19.23;40.63
11049;BME280;5577;42.706;23.160;2022-10-16T14:04:18;94927.59;;;18.95;41.38
11049;BME280;5577;42.706;23.160;2022-10-16T14:07:02;94895.34;;;18.81;40.97
11049;BME280;5577;42.706;23.160;2022-10-16T14:09:49;94953.69;;;18.98;41.16
11049;BME280;5577;42.706;23.160;2022-10-16T14:12:34;94933.16;;;18.52;42.20
11049;BME280;5577;42.706;23.160;2022-10-16T14:15:18;94927.03;;;18.48;42.56
11049;BME280;5577;42.706;23.160;2022-10-16T14:18:03;94955.41;;;18.52;41.87
11049;BME280;5577;42.706;23.160;2022-10-16T14:20:49;94959.53;;;18.39;43.66
11049;BME280;5577;42.706;23.160;2022-10-16T14:23:37;94955.69;;;18.37;43.55
11049;BME280;5577;42.706;23.160;2022-10-16T14:26:26;94963.63;;;18.26;43.20
11049;BME280;5577;42.706;23.160;2022-10-16T14:29:13;94967.03;;;18.20;43.15
11049;BME280;5577;42.706;23.160;2022-10-16T14:32:03;94971.94;;;18.11;42.61
11049;BME280;5577;42.706;23.160;2022-10-16T14:34:53;94961.94;;;18.01;42.97
11049;BME280;5577;42.706;23.160;2022-10-16T14:37:37;94963.38;;;17.91;43.15
11049;BME280;5577;42.706;23.160;2022-10-16T14:40:27;94969.03;;;17.79;43.38
11049;BME280;5577;42.706;23.160;2022-10-16T14:43:21;94967.78;;;17.66;44.01
11049;BME280;5577;42.706;23.160;2022-10-16T14:46:14;94971.94;;;17.60;44.48
11049;BME280;5577;42.706;23.160;2022-10-16T14:49:02;94979.84;;;17.46;44.36
11049;BME280;5577;42.706;23.160;2022-10-16T14:51:48;94976.66;;;17.37;44.61
11049;BME280;5577;42.706;23.160;2022-10-16T14:54:32;94974.25;;;17.25;45.25
11049;BME280;5577;42.706;23.160;2022-10-16T14:57:18;94992.53;;;17.19;45.76
11049;BME280;5577;42.706;23.160;2022-10-16T15:00:03;94948.97;;;16.86;46.38
11049;BME280;5577;42.706;23.160;2022-10-16T15:02:48;94985.81;;;16.99;46.80
11049;BME280;5577;42.706;23.160;2022-10-16T15:05:32;95005.47;;;16.81;46.93
11049;BME280;5577;42.706;23.160;2022-10-16T15:08:16;94996.38;;;16.59;47.24
11049;BME280;5577;42.706;23.160;2022-10-16T15:11:00;95001.25;;;16.50;47.46
11049;BME280;5577;42.706;23.160;2022-10-16T15:13:45;94992.72;;;16.19;47.64
11049;BME280;5577;42.706;23.160;2022-10-16T15:16:30;95005.69;;;16.17;47.41
11049;BME280;5577;42.706;23.160;2022-10-16T15:19:14;95001.75;;;16.07;47.99
11049;BME280;5577;42.706;23.160;2022-10-16T15:21:58;95007.22;;;15.92;48.36
11049;BME280;5577;42.706;23.160;2022-10-16T15:24:42;95007.84;;;15.85;48.04
11049;BME280;5577;42.706;23.160;2022-10-16T15:27:26;94999.94;;;15.66;48.47
11049;BME280;5577;42.706;23.160;2022-10-16T15:30:11;95009.06;;;15.65;48.54
11049;BME280;5577;42.706;23.160;2022-10-16T15:32:55;95016.19;;;15.58;49.01
11049;BME280;5577;42.706;23.160;2022-10-16T15:35:39;95009.88;;;15.47;49.48
11049;BME280;5577;42.706;23.160;2022-10-16T15:38:27;95019.25;;;15.37;49.51
11049;BME280;5577;42.706;23.160;2022-10-16T15:41:11;95021.69;;;15.27;50.38
11049;BME280;5577;42.706;23.160;2022-10-16T15:43:55;95022.25;;;15.17;50.38
11049;BME280;5577;42.706;23.160;2022-10-16T15:46:38;95033.47;;;15.07;51.22
11049;BME280;5577;42.706;23.160;2022-10-16T15:49:22;95040.50;;;14.96;52.03
11049;BME280;5577;42.706;23.160;2022-10-16T15:52:06;95051.72;;;14.86;52.42
11049;BME280;5577;42.706;23.160;2022-10-16T15:54:50;95048.59;;;14.65;54.76
11049;BME280;5577;42.706;23.160;2022-10-16T15:57:35;95022.13;;;14.21;56.69
11049;BME280;5577;42.706;23.160;2022-10-16T16:00:21;95055.13;;;14.17;58.77
11049;BME280;5577;42.706;23.160;2022-10-16T16:03:06;95060.03;;;13.99;60.10
11049;BME280;5577;42.706;23.160;2022-10-16T16:05:50;95068.09;;;13.87;61.57
11049;BME280;5577;42.706;23.160;2022-10-16T16:08:34;95064.91;;;13.82;62.67